Hollis, North Carolina
Current Conditions -  °F | °C
As of 9:35 AM on Monday 26 Jan 2015 (Local Time) from KFQD Reporting Station
Overcast Overcast  
Wind Chill: 43°   Ceiling: 8000
Heat Index: 43°   Visibility: 10mi
Dew Point: 35°   Wind: 0mph
Humidity: 74%   Direction: NA
Pressure: 29.66"   Gusts: NA
Location:  35.3839°N, 81.7531°W
Report Text: KFQD 261435Z AUTO 00000KT 10SM OVC080 06/02 A2966 RMK AO2 T00600017
Loading
Personal Weather Stations






























Interactive Weather Map New forecast layout! Learn more

10-Day Weather Forecast

Advertisements
Track Severe Weather on mobile